Time;durP1;ratioP1;P1;durP2;ratioP2;P2;SDS_P1;SDS_P2;PMS_P1;PMS_P2;Temp;Humidity;BMP_temperature;BMP_pressure;BME280_temperature;BME280_humidity;BME280_pressure;Samples;Min_cycle;Max_cycle;Signal;HPM_P1;HPM_P2
2023/03/07 00:01:22;;;;;;;15.10;6.70;;;;;;;0.70;100.00;99281.40;104851;1304;24401;-77
2023/03/07 00:03:51;;;;;;;16.60;6.30;;;;;;;0.69;100.00;99281.96;104790;1304;25252;-76
2023/03/07 00:06:19;;;;;;;12.90;5.90;;;;;;;0.68;100.00;99278.35;104758;1304;24342;-76
2023/03/07 00:08:52;;;;;;;16.90;6.60;;;;;;;0.66;100.00;99279.20;104659;1304;23935;-76
2023/03/07 00:11:22;;;;;;;16.20;6.10;;;;;;;0.65;100.00;99272.39;103975;1304;1003794;-76
2023/03/07 00:13:51;;;;;;;16.30;6.60;;;;;;;0.64;100.00;99276.38;104005;1304;1003557;-76
2023/03/07 00:16:22;;;;;;;14.50;6.00;;;;;;;0.63;100.00;99272.36;104087;1304;1003412;-75
2023/03/07 00:18:53;;;;;;;12.60;5.10;;;;;;;0.62;100.00;99267.88;104753;1304;25388;-75
2023/03/07 00:21:22;;;;;;;15.50;5.90;;;;;;;0.62;100.00;99264.84;104440;1304;26642;-76
2023/03/07 00:23:51;;;;;;;11.50;5.50;;;;;;;0.62;100.00;99259.48;104756;1304;22573;-76
2023/03/07 00:26:21;;;;;;;10.50;5.30;;;;;;;0.62;100.00;99254.20;104115;1303;1003281;-76
2023/03/07 00:28:50;;;;;;;10.50;5.60;;;;;;;0.62;100.00;99253.67;104891;1303;22652;-76
2023/03/07 00:31:19;;;;;;;15.90;6.00;;;;;;;0.62;100.00;99250.44;104216;1303;1003560;-76
2023/03/07 00:33:49;;;;;;;14.60;5.80;;;;;;;0.64;100.00;99246.93;104495;1303;25391;-77
2023/03/07 00:36:20;;;;;;;16.60;6.00;;;;;;;0.64;100.00;99251.02;104928;1303;25302;-78
2023/03/07 00:38:49;;;;;;;16.50;6.00;;;;;;;0.64;100.00;99250.98;104726;1303;210549;-77
2023/03/07 00:41:22;;;;;;;13.00;5.90;;;;;;;0.64;100.00;99245.33;104960;1303;24583;-76
2023/03/07 00:43:52;;;;;;;14.00;6.40;;;;;;;0.64;100.00;99247.27;104926;1303;22563;-77
2023/03/07 00:46:22;;;;;;;15.50;6.00;;;;;;;0.63;100.00;99245.09;104883;1303;26663;-76
2023/03/07 00:48:52;;;;;;;18.10;6.80;;;;;;;0.62;100.00;99242.69;104174;1303;1002847;-76
2023/03/07 00:51:26;;;;;;;15.30;5.80;;;;;;;0.60;100.00;99239.77;104895;1303;25466;-76
2023/03/07 00:53:55;;;;;;;12.60;6.00;;;;;;;0.61;100.00;99235.85;104932;1303;26688;-76
2023/03/07 00:56:24;;;;;;;13.70;6.00;;;;;;;0.60;100.00;99232.70;104900;1303;25293;-76
2023/03/07 00:58:52;;;;;;;13.30;5.60;;;;;;;0.61;100.00;99227.65;104198;1303;1003077;-76
2023/03/07 01:01:22;;;;;;;11.40;5.30;;;;;;;0.62;100.00;99222.98;103934;1304;1003493;-76
2023/03/07 01:03:54;;;;;;;13.50;5.20;;;;;;;0.63;100.00;99217.91;104064;1304;1003411;-76
2023/03/07 01:06:26;;;;;;;15.20;5.60;;;;;;;0.63;100.00;99214.34;104830;1304;25633;-75
2023/03/07 01:08:59;;;;;;;14.50;5.30;;;;;;;0.63;100.00;99208.48;104691;1304;22564;-75
2023/03/07 01:11:30;;;;;;;12.90;5.90;;;;;;;0.64;100.00;99202.79;104641;1304;25284;-76
2023/03/07 01:14:00;;;;;;;13.20;6.10;;;;;;;0.64;100.00;99194.09;104744;1304;22575;-76
2023/03/07 01:16:34;;;;;;;15.00;5.30;;;;;;;0.63;100.00;99187.55;104695;1304;25507;-77
2023/03/07 01:19:04;;;;;;;14.10;5.50;;;;;;;0.63;100.00;99185.23;104761;1304;22585;-77
2023/03/07 01:21:35;;;;;;;13.30;5.80;;;;;;;0.63;100.00;99175.57;104807;1304;22564;-79
2023/03/07 01:24:04;;;;;;;13.50;5.60;;;;;;;0.62;100.00;99172.77;104707;1304;22577;-77
2023/03/07 01:26:34;;;;;;;13.90;5.60;;;;;;;0.61;100.00;99165.73;104558;1305;25307;-76
2023/03/07 01:29:03;;;;;;;14.70;6.10;;;;;;;0.60;100.00;99164.92;104475;1305;25376;-76
2023/03/07 01:31:35;;;;;;;14.40;5.90;;;;;;;0.62;100.00;99160.57;104481;1305;25459;-76
2023/03/07 01:34:05;;;;;;;15.10;5.90;;;;;;;0.61;100.00;99153.48;104544;1305;22558;-77
2023/03/07 01:36:36;;;;;;;9.10;5.10;;;;;;;0.62;100.00;99148.31;104506;1305;22556;-77
2023/03/07 01:39:13;;;;;;;15.60;6.10;;;;;;;0.63;100.00;99146.30;104548;1305;25396;-76
2023/03/07 01:41:49;;;;;;;;;;;;;;;0.64;100.00;99135.35;104514;1305;22553;-77
2023/03/07 01:44:26;;;;;;;13.60;5.70;;;;;;;0.65;100.00;99135.45;104493;1305;22570;-77
2023/03/07 01:46:56;;;;;;;11.00;5.20;;;;;;;0.64;100.00;99126.46;104396;1305;23022;-77
2023/03/07 01:49:39;;;;;;;14.70;5.70;;;;;;;0.63;100.00;99120.56;103788;1305;1002858;-76
2023/03/07 01:52:10;;;;;;;14.20;6.40;;;;;;;0.61;100.00;99115.40;104532;1305;26549;-76
2023/03/07 01:54:47;;;;;;;14.60;5.90;;;;;;;0.61;100.00;99103.53;104535;1305;25504;-76
2023/03/07 01:57:20;;;;;;;16.90;6.40;;;;;;;0.61;100.00;99086.89;104540;1305;25415;-77
2023/03/07 01:59:50;;;;;;;14.30;6.10;;;;;;;0.59;100.00;99075.83;104496;1304;25424;-75
2023/03/07 02:02:21;;;;;;;16.20;6.60;;;;;;;0.58;100.00;99065.84;104518;1305;25330;-76
2023/03/07 02:05:02;;;;;;;16.60;5.50;;;;;;;0.56;100.00;99057.42;104518;1305;24266;-80
2023/03/07 02:07:34;;;;;;;13.60;6.40;;;;;;;0.56;100.00;99046.60;104510;1305;25460;-76
2023/03/07 02:10:03;;;;;;;17.50;6.40;;;;;;;0.55;100.00;99043.67;103982;1305;1002279;-76
2023/03/07 02:12:32;;;;;;;11.60;5.70;;;;;;;0.54;100.00;99035.77;104385;1305;26558;-78
2023/03/07 02:15:01;;;;;;;11.60;5.40;;;;;;;0.53;100.00;99031.82;104361;1305;22570;-78
2023/03/07 02:17:30;;;;;;;13.10;5.50;;;;;;;0.52;100.00;99021.05;104335;1305;25474;-77
2023/03/07 02:20:06;;;;;;;10.80;5.00;;;;;;;0.53;100.00;99018.88;104492;1304;22559;-76
2023/03/07 02:22:36;;;;;;;13.90;5.50;;;;;;;0.53;100.00;99020.11;104672;1304;25284;-76
2023/03/07 02:25:37;;;;;;;13.30;5.60;;;;;;;0.53;100.00;99016.88;104454;1305;24314;-75
2023/03/07 02:28:07;;;;;;;10.80;5.20;;;;;;;0.54;100.00;99007.10;104247;1305;25450;-76
2023/03/07 02:30:37;;;;;;;15.70;5.90;;;;;;;0.52;100.00;99000.02;103758;1305;1003641;-76
2023/03/07 02:33:06;;;;;;;9.80;4.70;;;;;;;0.51;100.00;98988.75;104519;1305;26669;-77
2023/03/07 02:35:39;;;;;;;11.30;5.10;;;;;;;0.50;100.00;98990.06;104487;1305;26547;-76
2023/03/07 02:38:08;;;;;;;11.20;5.50;;;;;;;0.49;100.00;98977.56;104490;1305;25416;-77
2023/03/07 02:40:38;;;;;;;10.60;5.20;;;;;;;0.49;100.00;98964.91;104485;1305;23952;-76
2023/03/07 02:43:08;;;;;;;14.80;6.30;;;;;;;0.50;100.00;98961.36;104486;1305;25475;-77
2023/03/07 02:45:38;;;;;;;11.80;5.00;;;;;;;0.49;100.00;98954.33;104497;1305;26636;-75
2023/03/07 02:48:09;;;;;;;13.70;5.10;;;;;;;0.49;100.00;98938.91;104448;1305;25338;-77
2023/03/07 02:50:40;;;;;;;13.00;5.80;;;;;;;0.49;100.00;98939.62;104544;1305;25296;-79
2023/03/07 02:53:10;;;;;;;9.90;4.80;;;;;;;0.49;100.00;98923.46;104534;1305;25338;-76
2023/03/07 02:55:38;;;;;;;11.10;5.00;;;;;;;0.49;100.00;98912.61;104529;1305;22555;-76
2023/03/07 02:58:08;;;;;;;12.60;5.60;;;;;;;0.48;100.00;98894.60;104509;1305;25284;-76
2023/03/07 03:00:37;;;;;;;11.10;5.30;;;;;;;0.48;100.00;98879.23;104519;1305;25288;-76
2023/03/07 03:03:06;;;;;;;11.00;4.90;;;;;;;0.46;100.00;98883.63;104441;1304;25407;-70
2023/03/07 03:05:38;;;;;;;11.90;5.10;;;;;;;0.46;100.00;98892.55;104453;1305;25338;-69
2023/03/07 03:08:08;;;;;;;11.60;5.80;;;;;;;0.46;100.00;98893.59;104464;1305;23953;-70
2023/03/07 03:10:36;;;;;;;21.00;8.60;;;;;;;0.45;100.00;98922.41;104461;1305;23889;-70
2023/03/07 03:13:07;;;;;;;36.20;11.40;;;;;;;0.45;100.00;98925.80;104492;1305;26541;-70
2023/03/07 03:15:36;;;;;;;40.60;15.90;;;;;;;0.45;100.00;98918.73;104438;1305;25939;-70
2023/03/07 03:18:07;;;;;;;39.90;13.50;;;;;;;0.45;100.00;98913.20;104468;1305;25429;-69
2023/03/07 03:20:39;;;;;;;30.90;12.50;;;;;;;0.44;100.00;98898.87;104475;1305;25478;-70
2023/03/07 03:23:07;;;;;;;24.60;9.90;;;;;;;0.44;100.00;98891.14;104480;1305;25452;-70
2023/03/07 03:25:38;;;;;;;20.40;9.10;;;;;;;0.43;100.00;98887.48;104383;1305;25501;-69
2023/03/07 03:28:08;;;;;;;23.40;9.40;;;;;;;0.42;100.00;98881.53;104425;1305;25300;-70
2023/03/07 03:30:37;;;;;;;16.70;7.30;;;;;;;0.41;100.00;98873.13;104523;1305;25481;-70
2023/03/07 03:33:07;;;;;;;15.20;7.00;;;;;;;0.40;100.00;98872.26;104460;1305;25391;-69
2023/03/07 03:35:38;;;;;;;14.40;6.70;;;;;;;0.42;100.00;98870.90;104505;1305;25465;-70
2023/03/07 03:38:07;;;;;;;16.60;6.50;;;;;;;0.44;100.00;98872.30;104494;1305;22548;-70
2023/03/07 03:40:37;;;;;;;14.90;5.80;;;;;;;0.45;100.00;98873.41;104495;1305;23176;-70
2023/03/07 03:43:06;;;;;;;13.60;6.30;;;;;;;0.46;100.00;98869.14;103762;1305;1003641;-70
2023/03/07 03:45:34;;;;;;;12.20;5.40;;;;;;;0.46;100.00;98868.25;103748;1305;1002624;-70
2023/03/07 03:48:03;;;;;;;14.30;5.50;;;;;;;0.45;100.00;98913.48;104422;1305;22581;-70
2023/03/07 03:50:38;;;;;;;11.60;5.50;;;;;;;0.45;100.00;98920.96;104427;1305;25379;-69
2023/03/07 03:53:08;;;;;;;13.10;5.30;;;;;;;0.46;100.00;98925.83;103765;1305;1002739;-69
2023/03/07 03:55:37;;;;;;;15.70;6.40;;;;;;;0.48;100.00;98929.06;104523;1305;25467;-68
2023/03/07 03:58:05;;;;;;;13.40;5.70;;;;;;;0.48;100.00;98924.61;104464;1305;25441;-69
2023/03/07 04:00:34;;;;;;;19.50;7.20;;;;;;;0.48;100.00;98921.10;104450;1283;25281;-70
2023/03/07 04:03:03;;;;;;;16.10;6.10;;;;;;;0.46;100.00;98918.39;104381;1305;25502;-69
2023/03/07 04:05:33;;;;;;;12.80;6.00;;;;;;;0.46;100.00;98910.11;104502;1305;24381;-70
2023/03/07 04:08:05;;;;;;;13.40;5.70;;;;;;;0.44;100.00;98906.55;103777;1305;1003078;-70
2023/03/07 04:10:36;;;;;;;26.10;11.10;;;;;;;0.41;100.00;98910.48;104467;1305;25501;-69
2023/03/07 04:13:07;;;;;;;41.40;18.20;;;;;;;0.39;100.00;98897.90;104492;1305;26554;-71
2023/03/07 04:15:36;;;;;;;31.70;15.20;;;;;;;0.37;100.00;98876.80;104424;1305;25425;-70
2023/03/07 04:18:21;;;;;;;25.10;10.30;;;;;;;0.33;100.00;98854.58;104495;1305;25342;-70
2023/03/07 04:20:50;;;;;;;20.40;8.80;;;;;;;0.32;100.00;98840.91;104453;1305;24410;-72
2023/03/07 04:23:26;;;;;;;11.10;6.10;;;;;;;0.31;100.00;98825.17;104460;1305;25351;-71
2023/03/07 04:25:57;;;;;;;17.00;7.30;;;;;;;0.32;100.00;98820.33;103768;1305;1003043;-70
2023/03/07 04:28:40;;;;;;;19.10;9.10;;;;;;;0.33;100.00;98800.92;104504;1305;25306;-71
2023/03/07 04:31:14;;;;;;;22.60;8.60;;;;;;;0.35;100.00;98794.48;104477;1305;22559;-70
2023/03/07 04:33:44;;;;;;;14.10;6.60;;;;;;;0.39;100.00;98776.66;104478;1305;25366;-69
2023/03/07 04:36:15;;;;;;;21.10;8.40;;;;;;;0.41;100.00;98764.40;104458;1305;22570;-69
2023/03/07 04:38:44;;;;;;;21.30;8.10;;;;;;;0.43;100.00;98750.59;104391;1305;25357;-69
2023/03/07 04:41:18;;;;;;;26.60;9.10;;;;;;;0.45;100.00;98739.98;104519;1305;24292;-70
2023/03/07 04:43:48;;;;;;;23.80;9.60;;;;;;;0.46;100.00;98706.33;104478;1305;22690;-68
2023/03/07 04:46:17;;;;;;;22.00;9.20;;;;;;;0.48;100.00;98692.18;104464;1305;22568;-70
2023/03/07 04:48:45;;;;;;;54.10;20.40;;;;;;;0.50;100.00;98687.92;103716;1305;1016748;-70
2023/03/07 04:51:14;;;;;;;65.80;27.40;;;;;;;0.51;100.00;98679.84;104436;1305;25568;-69
2023/03/07 04:53:46;;;;;;;83.50;31.10;;;;;;;0.52;100.00;98671.70;104457;1305;25364;-69
2023/03/07 04:56:15;;;;;;;43.40;18.90;;;;;;;0.56;100.00;98660.02;104471;1281;25437;-68
2023/03/07 04:58:44;;;;;;;31.90;13.80;;;;;;;0.58;100.00;98663.45;104454;1305;26681;-69
2023/03/07 05:01:14;;;;;;;40.50;16.60;;;;;;;0.58;100.00;98665.21;104691;1304;22555;-70
2023/03/07 05:03:43;;;;;;;32.70;14.00;;;;;;;0.58;100.00;98658.21;104751;1304;25469;-69
2023/03/07 05:06:19;;;;;;;27.50;11.70;;;;;;;0.60;100.00;98649.00;104458;1304;25422;-71
2023/03/07 05:08:52;;;;;;;23.20;9.70;;;;;;;0.62;100.00;98642.84;104052;1304;1003491;-69
2023/03/07 05:11:21;;;;;;;24.70;10.10;;;;;;;0.64;100.00;98637.30;104454;1304;25388;-69
2023/03/07 05:13:52;;;;;;;24.80;10.10;;;;;;;0.66;100.00;98633.16;104739;1304;25391;-70
2023/03/07 05:16:22;;;;;;;26.30;9.40;;;;;;;0.69;100.00;98623.48;104786;1304;24294;-69
2023/03/07 05:18:51;;;;;;;20.70;8.60;;;;;;;0.73;100.00;98612.11;104415;1304;23573;-68
2023/03/07 05:21:19;;;;;;;20.30;8.30;;;;;;;0.77;100.00;98603.66;104750;1304;25438;-70
2023/03/07 05:23:50;;;;;;;21.00;9.10;;;;;;;0.80;100.00;98593.63;104700;1304;25354;-69
2023/03/07 05:26:20;;;;;;;23.40;7.70;;;;;;;0.82;100.00;98584.20;104460;1304;25410;-69
2023/03/07 05:28:48;;;;;;;20.90;8.30;;;;;;;0.85;100.00;98577.83;104507;1304;25494;-69
2023/03/07 05:31:17;;;;;;;17.20;6.90;;;;;;;0.89;100.00;98570.77;104627;1304;25622;-69
2023/03/07 05:33:46;;;;;;;19.70;7.40;;;;;;;0.94;100.00;98565.15;104485;1304;22556;-70
2023/03/07 05:36:17;;;;;;;17.90;7.10;;;;;;;0.99;100.00;98554.20;104411;1304;25339;-70
2023/03/07 05:38:45;;;;;;;16.60;7.20;;;;;;;1.04;100.00;98541.18;104311;1304;24262;-71
2023/03/07 05:41:16;;;;;;;19.70;7.80;;;;;;;1.09;100.00;98527.64;104795;1304;23443;-69
2023/03/07 05:43:44;;;;;;;20.30;8.30;;;;;;;1.13;100.00;98519.45;104732;1296;24260;-71
2023/03/07 05:46:13;;;;;;;19.00;8.20;;;;;;;1.16;100.00;98515.11;104466;1299;22581;-70
2023/03/07 05:48:41;;;;;;;29.00;12.50;;;;;;;1.20;100.00;98505.84;104523;1296;26620;-69
2023/03/07 05:51:10;;;;;;;23.60;11.90;;;;;;;1.26;100.00;98498.95;104781;1298;22659;-69
2023/03/07 05:53:39;;;;;;;24.00;12.10;;;;;;;1.30;100.00;98488.08;104863;1296;22682;-70
2023/03/07 05:56:14;;;;;;;22.40;9.60;;;;;;;1.35;100.00;98475.84;104716;1296;25401;-72
2023/03/07 05:58:43;;;;;;;16.40;8.40;;;;;;;1.41;100.00;98455.89;104518;1298;26562;-70
2023/03/07 06:01:13;;;;;;;18.90;8.40;;;;;;;1.48;100.00;98444.02;104622;1301;26738;-70
2023/03/07 06:03:43;;;;;;;21.70;9.10;;;;;;;1.55;100.00;98432.12;104573;1298;25284;-70
2023/03/07 06:06:12;;;;;;;19.30;8.50;;;;;;;1.61;100.00;98424.77;104645;1304;22629;-69
2023/03/07 06:08:55;;;;;;;21.80;9.50;;;;;;;1.71;100.00;98421.30;104752;1304;25404;-68
2023/03/07 06:11:25;;;;;;;19.80;9.20;;;;;;;1.79;100.00;98405.24;104664;1303;25447;-71
2023/03/07 06:13:55;;;;;;;22.60;9.00;;;;;;;1.84;100.00;98400.05;104718;1297;26556;-76
2023/03/07 06:16:25;;;;;;;23.80;10.40;;;;;;;1.94;100.00;98391.79;104718;1304;25417;-78
2023/03/07 06:18:55;;;;;;;26.40;10.40;;;;;;;2.05;100.00;98387.43;104592;1296;26739;-74
2023/03/07 06:21:29;;;;;;;19.40;7.80;;;;;;;2.15;100.00;98382.39;104515;1296;24323;-77
2023/03/07 06:23:58;;;;;;;20.50;9.40;;;;;;;2.17;100.00;98381.48;104403;1296;26674;-75
2023/03/07 06:26:26;;;;;;;18.20;8.50;;;;;;;2.17;100.00;98388.42;104710;1298;22559;-78
2023/03/07 06:28:55;;;;;;;23.20;10.40;;;;;;;2.20;100.00;98392.71;104531;1296;25482;-78
2023/03/07 06:31:26;;;;;;;20.20;9.80;;;;;;;2.17;100.00;98397.41;104787;1296;25487;-78
2023/03/07 06:33:54;;;;;;;20.20;9.40;;;;;;;2.15;100.00;98406.41;104637;1304;22550;-78
2023/03/07 06:36:25;;;;;;;22.10;10.20;;;;;;;2.19;100.00;98414.44;104737;1304;26600;-77
2023/03/07 06:38:57;;;;;;;28.10;11.50;;;;;;;2.25;100.00;98414.27;104709;1304;24451;-76
2023/03/07 06:41:25;;;;;;;21.30;9.40;;;;;;;2.31;100.00;98420.95;104728;1304;25601;-79
2023/03/07 06:43:54;;;;;;;23.00;9.70;;;;;;;2.35;100.00;98426.73;104786;1304;24452;-80
2023/03/07 06:46:30;;;;;;;20.80;9.80;;;;;;;2.36;100.00;98439.80;104755;1304;23191;-77
2023/03/07 06:49:03;;;;;;;27.20;10.70;;;;;;;2.39;100.00;98443.56;105076;1303;23514;-79
2023/03/07 06:51:33;;;;;;;22.60;10.10;;;;;;;2.45;100.00;98444.92;104819;1304;22566;-79
2023/03/07 06:54:08;;;;;;;22.60;10.10;;;;;;;2.54;100.00;98452.88;104959;1299;25394;-79
2023/03/07 06:56:36;;;;;;;22.90;10.20;;;;;;;2.61;100.00;98457.63;104700;1298;22551;-78
2023/03/07 06:59:05;;;;;;;26.10;10.80;;;;;;;2.66;100.00;98474.36;104036;1296;1003255;-76
2023/03/07 07:01:34;;;;;;;22.70;9.70;;;;;;;2.73;100.00;98485.81;104803;1304;25386;-78
2023/03/07 07:04:03;;;;;;;24.10;9.80;;;;;;;2.78;100.00;98493.48;104539;1304;25470;-77
2023/03/07 07:06:36;;;;;;;23.00;9.70;;;;;;;2.82;100.00;98507.14;104627;1298;26711;-80
2023/03/07 07:09:05;;;;;;;24.10;10.70;;;;;;;2.78;100.00;98522.30;104712;1299;25509;-78
2023/03/07 07:11:37;;;;;;;23.00;10.50;;;;;;;2.80;100.00;98533.27;104760;1302;23245;-80
2023/03/07 07:14:10;;;;;;;25.10;10.70;;;;;;;2.80;100.00;98541.64;104147;1304;1003758;-76
2023/03/07 07:16:39;;;;;;;34.00;16.00;;;;;;;2.81;100.00;98550.42;104873;1304;23609;-75
2023/03/07 07:19:08;;;;;;;25.50;11.40;;;;;;;2.85;100.00;98553.97;104443;1304;24330;-77
2023/03/07 07:21:37;;;;;;;20.80;10.20;;;;;;;2.84;100.00;98552.40;104645;1304;25318;-77
2023/03/07 07:24:06;;;;;;;24.50;9.40;;;;;;;2.81;100.00;98559.13;104605;1304;24276;-76
2023/03/07 07:26:38;;;;;;;22.50;8.70;;;;;;;2.87;100.00;98564.27;104167;1304;1003840;-76
2023/03/07 07:29:08;;;;;;;17.80;8.60;;;;;;;2.91;100.00;98565.60;104839;1304;23550;-78
2023/03/07 07:31:37;;;;;;;22.90;11.50;;;;;;;2.93;100.00;98564.33;104543;1304;25542;-78
2023/03/07 07:34:06;;;;;;;19.00;8.40;;;;;;;2.96;100.00;98574.50;104733;1304;25542;-76
2023/03/07 07:36:34;;;;;;;18.80;8.30;;;;;;;3.02;100.00;98574.63;104402;1304;25436;-74
2023/03/07 07:39:04;;;;;;;19.20;8.50;;;;;;;3.06;100.00;98580.16;104777;1304;25389;-77
2023/03/07 07:41:34;;;;;;;22.00;8.80;;;;;;;3.08;100.00;98583.70;104827;1304;22546;-75
2023/03/07 07:44:03;;;;;;;18.10;7.90;;;;;;;3.02;100.00;98582.44;104817;1304;22566;-78
2023/03/07 07:46:39;;;;;;;20.70;9.20;;;;;;;2.98;100.00;98586.06;104949;1303;26508;-78
2023/03/07 07:49:08;;;;;;;20.70;8.90;;;;;;;2.99;100.00;98585.64;104713;1294;25462;-77
2023/03/07 07:51:39;;;;;;;16.60;7.70;;;;;;;3.00;100.00;98580.48;104437;1304;22584;-68
2023/03/07 07:54:08;;;;;;;17.40;8.10;;;;;;;2.99;100.00;98572.41;104030;1304;1003028;-65
2023/03/07 07:56:37;;;;;;;18.40;8.30;;;;;;;2.99;100.00;98574.21;104667;1304;25556;-69
2023/03/07 07:59:05;;;;;;;19.80;8.00;;;;;;;3.07;100.00;98569.64;104807;1304;24276;-69
2023/03/07 08:01:34;;;;;;;19.50;8.80;;;;;;;3.18;100.00;98568.48;104501;1283;22552;-69
2023/03/07 08:04:03;;;;;;;24.80;10.80;;;;;;;3.32;100.00;98559.92;104553;1304;25434;-70
2023/03/07 08:06:32;;;;;;;19.00;9.40;;;;;;;3.44;100.00;98550.54;104518;1304;25451;-70
2023/03/07 08:09:02;;;;;;;18.60;7.90;;;;;;;3.53;100.00;98551.73;104447;1304;25481;-70
2023/03/07 08:11:33;;;;;;;15.60;6.80;;;;;;;3.61;100.00;98552.10;104521;1304;25342;-69
2023/03/07 08:14:02;;;;;;;17.10;7.60;;;;;;;3.66;100.00;98546.26;104542;1304;26547;-69
2023/03/07 08:16:31;;;;;;;17.90;7.90;;;;;;;3.64;100.00;98551.73;104505;1304;25532;-71
2023/03/07 08:19:00;;;;;;;16.50;7.90;;;;;;;3.64;100.00;98555.04;104467;1298;24265;-73
2023/03/07 08:21:28;;;;;;;19.00;8.70;;;;;;;3.66;100.00;98559.25;104478;1297;25446;-71
2023/03/07 08:23:57;;;;;;;14.30;7.10;;;;;;;3.70;100.00;98565.62;104478;1297;25405;-71
2023/03/07 08:26:25;;;;;;;18.10;8.50;;;;;;;3.77;100.00;98569.32;104533;1305;24886;-71
2023/03/07 08:28:53;;;;;;;19.10;8.00;;;;;;;3.85;100.00;98568.75;104522;1305;22558;-77
2023/03/07 08:31:22;;;;;;;14.80;8.00;;;;;;;3.90;100.00;98571.80;104755;1305;24483;-77
2023/03/07 08:33:55;;;;;;;;;;;;;;;3.92;100.00;98581.44;104781;1304;25379;-76
2023/03/07 08:36:24;;;;;;;18.60;7.80;;;;;;;3.99;100.00;98583.73;104747;1298;24280;-75
2023/03/07 08:38:58;;;;;;;18.80;8.80;;;;;;;4.07;100.00;98589.59;104682;1305;25268;-75
2023/03/07 08:41:27;;;;;;;17.90;7.90;;;;;;;4.11;100.00;98596.52;104646;1298;22595;-68
2023/03/07 08:43:56;;;;;;;18.60;8.30;;;;;;;4.15;100.00;98598.50;104699;1298;22899;-68
2023/03/07 08:46:32;;;;;;;19.40;9.00;;;;;;;4.20;100.00;98606.46;104903;1298;22694;-70
2023/03/07 08:49:02;;;;;;;21.40;8.80;;;;;;;4.23;100.00;98615.39;104735;1297;25429;-75
2023/03/07 08:51:34;;;;;;;18.80;8.80;;;;;;;4.26;100.00;98620.83;104543;1299;25477;-76
2023/03/07 08:54:03;;;;;;;19.70;8.70;;;;;;;4.22;100.00;98623.29;104567;1304;26544;-76
2023/03/07 08:56:33;;;;;;;22.00;10.00;;;;;;;4.25;100.00;98624.80;104535;1305;25506;-75
2023/03/07 08:59:01;;;;;;;19.80;9.10;;;;;;;4.36;100.00;98632.74;104272;1298;25284;-78
2023/03/07 09:01:30;;;;;;;17.20;9.00;;;;;;;4.47;100.00;98635.59;104566;1298;22561;-77
2023/03/07 09:04:01;;;;;;;21.40;10.50;;;;;;;4.59;100.00;98630.61;104610;1297;22550;-71
2023/03/07 09:06:30;;;;;;;20.70;9.50;;;;;;;4.70;100.00;98631.55;104553;1304;25383;-76
2023/03/07 09:08:58;;;;;;;21.40;9.90;;;;;;;4.76;100.00;98639.61;104614;1298;22551;-77
2023/03/07 09:11:28;;;;;;;21.80;10.50;;;;;;;4.81;100.00;98641.45;105010;1297;24058;-75
2023/03/07 09:14:05;;;;;;;19.60;9.70;;;;;;;4.85;100.00;98647.17;104869;1298;25485;-71
2023/03/07 09:16:50;;;;;;;22.70;9.60;;;;;;;4.99;100.00;98651.54;104249;1304;24276;-70
2023/03/07 09:19:20;;;;;;;19.80;9.60;;;;;;;5.10;100.00;98656.08;104479;1301;24262;-70
2023/03/07 09:21:50;;;;;;;21.00;9.80;;;;;;;5.25;100.00;98662.09;104792;1298;23518;-69
2023/03/07 09:24:20;;;;;;;24.30;8.90;;;;;;;5.40;100.00;98671.52;104585;1298;26583;-70
2023/03/07 09:26:51;;;;;;;19.60;9.20;;;;;;;5.47;100.00;98675.38;104487;1296;25341;-70
2023/03/07 09:29:23;;;;;;;22.40;10.00;;;;;;;5.56;100.00;98674.83;104500;1305;24085;-72
2023/03/07 09:31:54;;;;;;;19.30;9.70;;;;;;;5.65;100.00;98677.66;104551;1298;26841;-70
2023/03/07 09:34:24;;;;;;;20.80;9.30;;;;;;;5.72;100.00;98685.48;104712;1298;25465;-75
2023/03/07 09:37:00;;;;;;;22.70;10.20;;;;;;;5.82;100.00;98690.08;104427;1298;25358;-77
2023/03/07 09:39:31;;;;;;;19.50;8.60;;;;;;;5.93;100.00;98693.98;104481;1305;22559;-80
2023/03/07 09:42:16;;;;;;;19.00;9.40;;;;;;;5.99;100.00;98704.75;104591;1302;22715;-76
2023/03/07 09:44:51;;;;;;;19.10;8.80;;;;;;;6.11;100.00;98706.82;104745;1298;24335;-76
2023/03/07 09:47:58;;;;;;;18.80;8.80;;;;;;;6.25;100.00;98712.55;105004;1298;25460;-76
2023/03/07 09:50:38;;;;;;;18.20;8.20;;;;;;;6.59;100.00;98719.08;104710;1294;26643;-69
2023/03/07 09:53:11;;;;;;;18.20;8.10;;;;;;;7.00;100.00;98729.04;104513;1298;25316;-69
2023/03/07 09:55:40;;;;;;;19.80;9.00;;;;;;;7.24;100.00;98744.69;104756;1304;25424;-68
2023/03/07 09:58:14;;;;;;;17.70;8.80;;;;;;;7.41;100.00;98770.42;104860;1299;25431;-77
2023/03/07 10:00:44;;;;;;;21.80;9.40;;;;;;;7.54;100.00;98797.36;104523;1305;25345;-76
2023/03/07 10:03:24;;;;;;;20.80;9.00;;;;;;;7.45;100.00;98842.20;104413;1305;25297;-71
2023/03/07 10:05:55;;;;;;;19.10;9.00;;;;;;;7.41;100.00;98879.21;104453;1305;22561;-69
2023/03/07 10:08:27;;;;;;;20.10;8.70;;;;;;;7.41;100.00;98894.09;104534;1305;24343;-68
2023/03/07 10:11:25;;;;;;;18.50;8.70;;;;;;;7.44;100.00;98910.73;104555;1298;22558;-70
2023/03/07 10:14:14;;;;;;;16.30;7.80;;;;;;;7.47;100.00;98914.09;104532;1297;25612;-69
2023/03/07 10:16:52;;;;;;;17.70;7.70;;;;;;;7.52;100.00;98920.45;104443;1298;22708;-77
2023/03/07 10:19:49;;;;;;;17.10;8.00;;;;;;;7.53;100.00;98937.80;104389;1302;23762;-77
2023/03/07 10:22:30;;;;;;;18.30;7.40;;;;;;;7.48;100.00;98966.85;105302;1305;22615;-72
2023/03/07 10:25:23;;;;;;;15.50;7.40;;;;;;;7.51;100.00;98979.46;104538;1302;22724;-69
2023/03/07 10:27:54;;;;;;;17.10;7.30;;;;;;;7.71;100.00;98966.02;104494;1305;25462;-70
2023/03/07 10:30:23;;;;;;;12.60;6.20;;;;;;;7.90;100.00;98954.29;104535;1305;22570;-69
2023/03/07 10:32:57;;;;;;;13.60;6.80;;;;;;;8.07;100.00;98967.66;104545;1305;25420;-70
2023/03/07 10:35:39;;;;;;;13.10;6.10;;;;;;;8.38;100.00;98975.38;104579;1305;22697;-70
2023/03/07 10:38:36;;;;;;;15.30;6.80;;;;;;;8.62;100.00;98992.95;104520;1305;25379;-70
2023/03/07 10:41:16;;;;;;;17.40;8.00;;;;;;;8.62;100.00;98998.03;104466;1298;22558;-70
2023/03/07 10:43:45;;;;;;;18.00;8.00;;;;;;;8.52;100.00;99000.08;104501;1298;22584;-70
2023/03/07 10:46:21;;;;;;;16.80;7.50;;;;;;;8.50;100.00;98986.67;105258;1298;25455;-72
2023/03/07 10:49:07;;;;;;;16.00;7.80;;;;;;;8.50;100.00;98984.02;105254;1302;26006;-69
2023/03/07 10:51:53;;;;;;;19.30;9.00;;;;;;;8.42;100.00;98983.70;104981;1297;25309;-70
2023/03/07 10:54:28;;;;;;;19.70;8.80;;;;;;;8.32;100.00;98977.68;104900;1298;25290;-70
2023/03/07 10:57:15;;;;;;;20.50;8.50;;;;;;;8.30;100.00;98964.55;104836;1302;22557;-68
2023/03/07 10:59:48;;;;;;;24.10;10.20;;;;;;;8.49;100.00;98950.91;104756;1304;22584;-68
2023/03/07 11:02:43;;;;;;;21.20;10.50;;;;;;;8.77;100.00;98934.10;104961;1303;25466;-70
2023/03/07 11:05:39;;;;;;;25.90;12.40;;;;;;;9.08;100.00;98931.37;104839;1298;25940;-70
2023/03/07 11:08:41;;;;;;;52.00;12.90;;;;;;;9.31;100.00;98939.45;105213;1304;25450;-69
2023/03/07 11:11:20;;;;;;;25.80;11.10;;;;;;;9.42;100.00;98956.33;105086;1304;22570;-79
2023/03/07 11:14:04;;;;;;;24.60;11.00;;;;;;;9.37;100.00;98967.58;105867;1304;25341;-76
2023/03/07 11:16:41;;;;;;;29.60;11.70;;;;;;;9.26;100.00;98962.08;106295;1296;25230;-77
2023/03/07 11:19:43;;;;;;;25.50;11.40;;;;;;;9.20;100.00;98945.54;105883;1298;25992;-77
2023/03/07 11:22:23;;;;;;;22.90;10.50;;;;;;;9.04;100.00;98949.23;105950;1305;25462;-78
2023/03/07 11:25:00;;;;;;;27.50;9.90;;;;;;;8.86;100.00;98949.33;106045;1302;22645;-77
2023/03/07 11:27:52;;;;;;;19.70;9.50;;;;;;;8.76;100.00;98943.46;106044;1303;22651;-79
2023/03/07 11:30:59;;;;;;;13.90;7.60;;;;;;;8.82;100.00;98930.48;106098;1296;23037;-81
2023/03/07 11:33:36;;;;;;;20.00;8.60;;;;;;;8.85;100.00;98925.19;105752;1304;26002;-79
2023/03/07 11:36:21;;;;;;;23.40;9.70;;;;;;;8.85;100.00;98935.71;105231;1296;22518;-69
2023/03/07 11:38:52;;;;;;;;;;;;;;;8.81;100.00;98942.87;105638;1304;22617;-70